Air Navigation Services of Czech Republic
Airport: LKMT Updated:  28.01.2021 01:30:24  UTC
 METAR LKMT 28.01. 01:30 ...
METAR LKMT 280130Z 23005KT CAVOK M06/M08 Q1012 NOSIG RMK REG QNH 1006=
 TAF LKMT 27.01. 23:00 ...
TAF LKMT 272300Z 2800/2906 21005KT CAVOK      BECMG 2806/2808 9999 BKN017      TEMPO 2809/2816 22012G28KT 6000 -SN BKN012      BECMG 2816/2818 6000 SN BKN012      TEMPO 2818/2906 1200 SN BR BKN004=